This is the latest recevied weather packets stored in our database for station/object IZ2MHJ-3. If no packets are shown the sender has not sent any weather packets the latest 10 day(s).
| Time | Temp. | Humidity | Pressure | Rain* | Wind** | Luminosity | Snow |
|---|---|---|---|---|---|---|---|
| 1788024005 | 32.22° C | 45% | 1013.3 hPa | - | - | - | - |
| 1788022805 | 32.22° C | 46% | 1013.4 hPa | - | - | - | - |
| 1788021605 | 31.11° C | 47% | 1013.5 hPa | - | - | - | - |
| 1788020404 | 33.33° C | 43% | 1013.3 hPa | - | - | - | - |
| 1788019204 | 31.67° C | 47% | 1013.6 hPa | - | - | - | - |
| 1788018004 | 32.22° C | 46% | 1013.6 hPa | - | - | - | - |
| 1788016803 | 33.33° C | 45% | 1013.6 hPa | - | - | - | - |
| 1788015603 | 35.56° C | 42% | 1013.4 hPa | - | - | - | - |
| 1788014403 | 32.78° C | 48% | 1013.7 hPa | - | - | - | - |
| 1788013202 | 33.89° C | 46% | 1013.6 hPa | - | - | - | - |
| 1788012002 | 35° C | 42% | 1013.7 hPa | - | - | - | - |
| 1788010803 | 34.44° C | 47% | 1014 hPa | - | - | - | - |
| 1788009601 | 35° C | 47% | 1014.1 hPa | - | - | - | - |
| 1788008402 | 32.22° C | 54% | 1014.5 hPa | - | - | - | - |
| 1788007201 | 33.33° C | 51% | 1014.6 hPa | - | - | - | - |
| 1788006000 | 29.44° C | 62% | 1014.8 hPa | - | - | - | - |
| 1788004800 | 29.44° C | 63% | 1015 hPa | - | - | - | - |
| 1788003600 | 29.44° C | 63% | 1015.1 hPa | - | - | - | - |
| 1788002399 | 29.44° C | 63% | 1015.3 hPa | - | - | - | - |
| 1788001264 | 29.44° C | 64% | 1015.2 hPa | - | - | - | - |
| 1788000064 | 28.89° C | 65% | 1015.3 hPa | - | - | - | - |
| 1787998864 | 28.89° C | 67% | 1015.4 hPa | - | - | - | - |
| 1787997663 | 29.44° C | 61% | 1015.3 hPa | - | - | - | - |
| 1787996463 | 28.89° C | 62% | 1015.3 hPa | - | - | - | - |
| 1787995263 | 27.78° C | 67% | 1015.5 hPa | - | - | - | - |
* Rain since midnight (hover to see other rain measurements)
** Current wind speed in m/s (hover to see current wind gust speed)